Briefing drone pour Saint-pal-de-mons

Rechercher une autre localisation

Conditions de vol :


Nous sommes le : Mercredi 08 décembre 2021
Il est 21:18 UTC (22:18 LT)

Lever de soleil : 06:43 UTC (07:43 LT)
Coucher de soleil : 16:26 UTC (17:26 LT)

Météo

L'essentiel des conditions de vol

VIGILANCE MÉTÉO FRANCE - Haute-Loire (43)
Pas de vigilances particulieres
METAR de LFMH
LFMH 082100Z AUTO 26001KT 9999 BKN032 OVC054 03/02 Q1005

Date d'émission: 08/12/2021
Heure d'émission: 21:00 UTC
Vent: 260° pour 1 KT (2 km/h)
Visibilité horizontale: > 10 km
Plafond :
- Nuages morcelés à 3200ft (975m)
- Couvert à 5400ft (1646m)
Température: 3 °C
Point de rosée: 2 °C
Humidité: 93%
Pression (QNH): 1005 hPa
TAF de LFMH
LFMH 161901Z 1619/1712 CNL

Conditions prévues :

Heure d'émission : Bulletin éffectué le 16 à 19:00 UTC
Prévision : Valide du 16 a 19:00 UTC au 17 a 12:00 UTC
Nuages : à 0ft (0 m)
WEBCAM POUR SAINT-PAL-DE-MONS

Réglementation

Voler en sécurité

CARTES AERONAUTIQUE 1/500.000
CARTES VAC (LFMH)
SUP AIP




Chargement des AIP...
NOTAM (SAINT-PAL-DE-MONS + Terrain à proximité / FIR )




Chargement des NOTAMS...
CONTACT PREFECTURE 43


Avertissement : Les données mises à disposition sont indicatives. Oxygène Drone ne pourra être tenu responsable de dégâts causés aux biens et aux personnes.